Warm Springs, GA (31830)

8:09 PM EST on January 31, 2015 (GMT -0500)
SE Meriwether WX | Change Station
CLOSE
Current Station
Personal Weather Station
Location: Manchester, GA
Elevation: 899 ft
Nearby Weather Stations

Elev 899 ft 32.86 °N, 84.61 °W | Updated 4 seconds ago

Partly Cloudy
Partly Cloudy
48.1 °F
Feels Like 48 °F
N
0.0
Wind Variable Wind from North
Gusts 0.0 mph

Today
High -- | Low -- °F
--% Chance of Precip.
Yesterday
High -- | Low -- °F
Precip. -- in
7:34 AM 6:10 PM
Waxing Gibbous, 92% visible
Pressure 30.29 in
Visibility 10.0 miles
Clouds Clear
Windchill 48 °F
Dew Point 22 °F
Humidity 36%
Rainfall 0.00 in
Snow Depth Not available.
UV 0 out of 12
Pollen 4.10 out of 12
Air Quality Not available.
Flu Activity Not available.
METAR KLGC 010055Z AUTO 00000KT 10SM CLR 07/00 A3029 RMK AO2 T00710000

More Conditions Fewer Conditions

Pressure 30.29 in
Visibility 10.0 miles
Clouds Clear
Windchill 48 °F
Dew Point 22 °F
Humidity 36%
Rainfall 0.00 in
Snow Depth Not available.
UV 0 out of 12
Pollen 4.10 out of 12
Air Quality Not available.
Flu Activity Not available.
METAR KLGC 010055Z AUTO 00000KT 10SM CLR 07/00 A3029 RMK AO2 T00710000

More Conditions Fewer Conditions

10-Day Weather Forecast

Almanac

Astronomy

Jan. 31, 2015 Rise Set
Actual Time
Civil Twilight
Nautical Twilight
Astronomical Twilight
Moon
Length of Visible Light
Length of Day
Tomorrow will be .
, % of the Moon is Illuminated

Today's Extremes

State Highs State Lows

Community

WunderPhotos

Upload Photos

1,792,268 photos uploaded!

WunderBlogs® & News

Nearby

Air Quality

  Air Quality AQ Index Pollutant
Not available.

Snow Depth

Station Depth Elevation

Earthquake Activity

City Distance Mag. Time & Date
Minimum magnitude displayed is 2.5.

Coastal Water Temperatures

Place Temperature

Nearby Weather Stations